WetterOnline ( https://www.wetteronline.de )

Wetter aktuell Klein Heikeland

Aktuelles Wetter: Norderney (16m)

6-stündlich | Neueste Meldungen
Ortszeit Temperatur Wetter
Mi, 23.10. 8:00 9.2° C wolkig
Mi, 23.10. 2:00 11.0° C fast wolkenlos
Di, 22.10. 20:00 12.2° C fast wolkenlos
Di, 22.10. 14:00 14.4° C bewölkt
Di, 22.10. 8:00 11.6° C bedeckt
Di, 22.10. 2:00 11.4° C bedeckt
Mo, 21.10. 20:00 13.1° C Sprühregen
Mo, 21.10. 14:00 12.3° C bedeckt
Ortszeit Temperatur Wetter
Mi, 23.10. 9:00 9.4° C bewölkt
Mi, 23.10. 8:50 9.4° C bewölkt
Mi, 23.10. 8:40 9.4° C bedeckt
Mi, 23.10. 8:30 9.3° C bedeckt
Mi, 23.10. 8:20 9.3° C bedeckt
Mi, 23.10. 8:10 9.3° C bewölkt
Mi, 23.10. 8:00 9.2° C wolkig
Mi, 23.10. 7:30 9.1° C leicht bewölkt
Mi, 23.10. 7:00 9.1° C wolkenlos
Mi, 23.10. 6:30 9.1° C wolkenlos
Mi, 23.10. 6:00 9.7° C wolkenlos
Ortszeit Relative Feuchte Sichtweite
Mi, 23.10. 8:00 92% 17 km
Mi, 23.10. 2:00 86% 35 km
Di, 22.10. 20:00 84% 27 km
Di, 22.10. 14:00 87% 11 km
Di, 22.10. 8:00 92% 6 km
Di, 22.10. 2:00 87% 35 km
Mo, 21.10. 20:00 93% 11 km
Mo, 21.10. 14:00 98% 7 km
Ortszeit Relative Feuchte Sichtweite
Mi, 23.10. 9:00 90% 21 km
Mi, 23.10. 8:50 90% -
Mi, 23.10. 8:40 92% -
Mi, 23.10. 8:30 92% 20 km
Mi, 23.10. 8:20 92% -
Mi, 23.10. 8:10 92% -
Mi, 23.10. 8:00 92% 17 km
Mi, 23.10. 7:30 92% 18 km
Mi, 23.10. 7:00 93% 18 km
Mi, 23.10. 6:30 93% 17 km
Mi, 23.10. 6:00 92% 22 km
Ortszeit Niederschlagsmenge Niederschlagsart
Mi, 23.10. 8:00 0.0 l/m2 in 12 Std. -
Mi, 23.10. 2:00 0.0 l/m2 in 6 Std. -
Di, 22.10. 20:00 0.1 l/m2 in 12 Std. -
Di, 22.10. 14:00 0.1 l/m2 in 6 Std. Sprühregen
Di, 22.10. 8:00 0.1 l/m2 in 12 Std. -
Di, 22.10. 2:00 0.1 l/m2 in 6 Std. Sprühregen
Mo, 21.10. 20:00 2 l/m2 in 12 Std. Regen
Mo, 21.10. 14:00 1 l/m2 in 6 Std. Regen
Ortszeit Niederschlagsmenge Niederschlagsart
Mi, 23.10. 9:00 0.0 l/m2 in 1 Std. -
Mi, 23.10. 8:50 keine Meldung -
Mi, 23.10. 8:40 keine Meldung -
Mi, 23.10. 8:30 0.0 l/m2 in 1 Std. -
Mi, 23.10. 8:20 keine Meldung -
Mi, 23.10. 8:10 keine Meldung -
Mi, 23.10. 8:00 0.0 l/m2 in 1 Std. -
Mi, 23.10. 7:30 0.0 l/m2 in 1 Std. -
Mi, 23.10. 7:00 0.0 l/m2 in 1 Std. -
Mi, 23.10. 6:30 0.0 l/m2 in 1 Std. -
Mi, 23.10. 6:00 0.0 l/m2 in 1 Std. -
Ortszeit Stärke Spitze Richtung
km/h Bft. km/h Grad Sektor
Mi, 23.10. 8:00 11 2 18 170° S
Mi, 23.10. 2:00 11 2 22 220° SW
Di, 22.10. 20:00 9 2 26 240° SW
Di, 22.10. 14:00 14 3 36 220° SW
Di, 22.10. 8:00 15 3 35 200° S
Di, 22.10. 2:00 14 3 29 190° S
Mo, 21.10. 20:00 11 2 25 190° S
Mo, 21.10. 14:00 9 2 52 120° SO
Ortszeit Stärke Spitze Richtung
km/h Bft. km/h Grad Sektor
Mi, 23.10. 9:00 11 2 18 170° S
Mi, 23.10. 8:50 11 2 - 170° S
Mi, 23.10. 8:40 9 2 - 160° S
Mi, 23.10. 8:30 7 2 14 170° S
Mi, 23.10. 8:20 7 2 - 170° S
Mi, 23.10. 8:10 11 2 - 170° S
Mi, 23.10. 8:00 11 2 18 170° S
Mi, 23.10. 7:30 11 2 17 160° S
Mi, 23.10. 7:00 11 2 14 160° S
Mi, 23.10. 6:30 9 2 15 180° S
Mi, 23.10. 6:00 11 2 18 170° S
Ortszeit Untergrenze Bedeckung Gattung
total tief tief mittel hoch
Mi, 23.10. 8:00 5700 m 8/8 2/8 - - -
Mi, 23.10. 2:00 870 m 1/8 1/8 - - -
Di, 22.10. 20:00 570 m 1/8 1/8 - - -
Di, 22.10. 14:00 240 m 7/8 7/8 - - -
Di, 22.10. 8:00 270 m 8/8 8/8 - - -
Di, 22.10. 2:00 1500 m 8/8 8/8 - - -
Mo, 21.10. 20:00 810 m 8/8 8/8 - - -
Mo, 21.10. 14:00 90 m 8/8 8/8 - - -
Ortszeit Bedeckungsgrad in Achtel und Wolkenuntergrenze
Mi, 23.10. 9:00 7(5100m) 8(7500m)
Mi, 23.10. 8:50 7(5100m) 8(7500m)
Mi, 23.10. 8:40 8(5100m) 8(7800m)
Mi, 23.10. 8:30 8(5100m) 8(7200m) 8(8100m)
Mi, 23.10. 8:20 8(5100m) 8(7200m) 8(8100m)
Mi, 23.10. 8:10 7(5400m) 8(7200m) 8(8100m)
Mi, 23.10. 8:00 2(5700m) 8(7200m)
Mi, 23.10. 7:30 4(7200m)
Mi, 23.10. 7:00 keine Wolken
Mi, 23.10. 6:30 keine Wolken
Mi, 23.10. 6:00 keine Wolken
Ortszeit Luftdruck NN (hPa) Tendenz (hPa in 3 Std.)
Mi, 23.10. 8:00 1020 - 1,1
Mi, 23.10. 2:00 1023 - 0,3
Di, 22.10. 20:00 1023 + 0,7
Di, 22.10. 14:00 1022 + 0,6
Di, 22.10. 8:00 1020 + 0,6
Di, 22.10. 2:00 1020 + 0,5
Mo, 21.10. 20:00 1018 + 1,8
Mo, 21.10. 14:00 1016 + 0,4
Ortszeit Luftdruck NN (hPa) Tendenz (hPa in 3 Std.)
Mi, 23.10. 9:00 1020 - 0,5
Mi, 23.10. 8:50 1020 keine Meldung
Mi, 23.10. 8:40 1020 keine Meldung
Mi, 23.10. 8:30 1020 - 1,1
Mi, 23.10. 8:20 1020 keine Meldung
Mi, 23.10. 8:10 1020 keine Meldung
Mi, 23.10. 8:00 1020 - 1,1
Mi, 23.10. 7:30 1020 - 1,0
Mi, 23.10. 7:00 1021 - 1,1
Mi, 23.10. 6:30 1021 - 1,1
Mi, 23.10. 6:00 1021 - 1,1
Ortszeit Schneehöhe (cm)
Mi, 23.10. 8:00 0
Mi, 23.10. 2:00 0
Di, 22.10. 20:00 0
Di, 22.10. 14:00 0
Di, 22.10. 8:00 0
Di, 22.10. 2:00 0
Mo, 21.10. 20:00 0
Mo, 21.10. 14:00 0
Ortszeit Schneehöhe (cm)
Mi, 23.10. 9:00 0
Mi, 23.10. 8:50 0
Mi, 23.10. 8:40 0
Mi, 23.10. 8:30 0
Mi, 23.10. 8:20 0
Mi, 23.10. 8:10 0
Mi, 23.10. 8:00 0
Mi, 23.10. 7:30 0
Mi, 23.10. 7:00 0
Mi, 23.10. 6:30 0
Mi, 23.10. 6:00 0
Link zu dieser Seite / Seite empfehlen

Das Wetter in ...